Terminal Aerodrome Forecast
Issued by NWS Sterling, VA

Home | Current Version | Previous Version | Text Only | Print | Product List | Glossary On
Versions: 1 2 3 4 5 6 7 8 9 10 11 12 13 14 15 16 17 18 19 20 21 22 23
000
FTUS41 KLWX 211400 AAA
TAFIAD
TAF AMD
KIAD 211438Z 2115/2218 31013G21KT P6SM SCT050
     FM212100 31010KT P6SM SKC
     FM212300 32006KT P6SM SKC
     FM220300 00000KT P6SM SKC
     FM221400 19006KT P6SM FEW250=

USA.gov is the U.S. government's official web portal to all federal, state and local government web resources and services.